logo
Search for airport 
image banner adimage banner adimage banner ad
image banner ad

OENG - Nejran / Nejran (Regional)

Located in Nejran, Saudi Arabia

ICAO - OENG, IATA - EAM

Data provided by Airmate  

General information

Coordinates: N17°36'41" E44°25'9"
Elevation is 3983 feet MSL.
 
View others Airports in Najran

Operational data

Special qualification required
Current time UTC:
Current local time:
Weather
METAR: OENG 170700Z 10004KT CAVOK 25/02 Q1020 NOSIG
TAF: TAF OENG 162300Z 1700/1806 VRB03KT 7000 FEW040 TEMPO 1702/1714 3000 DU BECMG 1706/1708 10010KT BECMG 1722/1800 VRB03KT
View NOTAMs / SUP AIP / TFR affecting this airport [VIEW]
Communications frequencies: [VIEW]

Runways:

RWY identifierQFULength (ft)Width (ft)SurfaceLDA (ft)
0660°10007148ASP
24240°10007148ASP

Airport contact information

Address: Nejran Saudi Arabia

Satellite view of OENG